Aviation Digital Data Service (ADDS)

Output produced by METARs form (1756 UTC 29 August 2016)
found at http://aviationweather.gov/adds/metars/
 
KDUJ 291739Z 2918/3018 35003KT P6SM FEW015